Time;durP1;ratioP1;P1;durP2;ratioP2;P2;SDS_P1;SDS_P2;PMS_P1;PMS_P2;Temp;Humidity;BMP_temperature;BMP_pressure;BME280_temperature;BME280_humidity;BME280_pressure;Samples;Min_cycle;Max_cycle;Signal;HPM_P1;HPM_P2
2023/05/24 00:02:14;;;;;;;10.20;2.90;;;;;;;11.58;58.63;102367.63;5028433;28;20067;-89
2023/05/24 00:04:40;;;;;;;7.50;2.42;;;;;;;11.58;59.25;102370.28;5032962;28;20053;-89
2023/05/24 00:07:06;;;;;;;6.72;2.60;;;;;;;11.51;59.14;102358.91;5030637;28;20156;-89
2023/05/24 00:09:31;;;;;;;10.52;2.67;;;;;;;11.41;59.71;102360.00;5031056;28;20108;-89
2023/05/24 00:11:57;;;;;;;10.73;2.78;;;;;;;11.45;59.35;102372.28;5015079;28;20033;-89
2023/05/24 00:14:23;;;;;;;8.18;2.78;;;;;;;11.29;60.10;102344.38;5032953;28;20040;-89
2023/05/24 00:16:48;;;;;;;5.63;2.83;;;;;;;11.10;61.13;102342.06;5018748;28;20029;-89
2023/05/24 00:19:17;;;;;;;9.65;2.67;;;;;;;11.07;61.40;102352.69;5020450;28;20021;-89
2023/05/24 00:21:43;;;;;;;11.15;2.72;;;;;;;11.04;61.07;102341.28;5029585;28;20036;-89
2023/05/24 00:24:09;;;;;;;6.75;2.35;;;;;;;11.01;60.93;102336.94;5033127;28;20087;-89
2023/05/24 00:26:35;;;;;;;7.68;2.40;;;;;;;10.99;61.13;102341.38;5034009;28;20857;-89
2023/05/24 00:29:01;;;;;;;6.75;2.42;;;;;;;10.64;62.53;102327.00;5032380;28;20043;-89
2023/05/24 00:31:26;;;;;;;7.50;2.97;;;;;;;10.71;61.84;102341.84;5030957;28;20041;-89
2023/05/24 00:33:51;;;;;;;8.77;2.90;;;;;;;10.54;62.59;102343.91;5028500;28;20077;-89
2023/05/24 00:36:17;;;;;;;8.63;2.70;;;;;;;10.47;62.51;102343.13;5032425;28;20103;-89
2023/05/24 00:38:42;;;;;;;8.02;3.10;;;;;;;10.39;63.25;102333.56;5028187;28;20032;-89
2023/05/24 00:41:07;;;;;;;8.77;2.67;;;;;;;10.48;62.69;102331.63;5011314;28;20063;-89
2023/05/24 00:43:33;;;;;;;6.93;2.58;;;;;;;10.65;62.18;102341.97;5017180;28;20388;-89
2023/05/24 00:46:14;;;;;;;8.07;2.53;;;;;;;10.73;61.85;102337.44;5030301;28;20476;-88
2023/05/24 00:48:40;;;;;;;7.30;2.95;;;;;;;10.68;62.06;102331.34;5027546;28;20047;-89
2023/05/24 00:51:05;;;;;;;7.30;3.38;;;;;;;10.73;61.16;102333.91;5027001;28;20513;-89
2023/05/24 00:53:32;;;;;;;8.55;2.40;;;;;;;10.79;60.97;102327.63;5020240;28;20037;-89
2023/05/24 00:55:58;;;;;;;8.48;2.72;;;;;;;10.86;60.83;102335.41;5029182;28;20433;-89
2023/05/24 00:58:29;;;;;;;19.67;3.05;;;;;;;10.83;60.86;102330.19;5028945;28;20021;-89
2023/05/24 01:00:58;;;;;;;6.95;2.50;;;;;;;10.83;59.76;102326.69;5010698;28;20056;-89
2023/05/24 01:03:24;;;;;;;6.18;2.50;;;;;;;10.83;59.94;102318.75;5029139;28;20060;-90
2023/05/24 01:05:49;;;;;;;7.63;3.22;;;;;;;10.95;60.54;102332.59;5011613;28;20064;-90
2023/05/24 01:08:37;;;;;;;6.75;2.75;;;;;;;10.84;60.63;102317.84;5024924;28;20022;-89
2023/05/24 01:11:33;;;;;;;7.15;2.70;;;;;;;10.81;60.09;102329.34;5011391;28;20036;-90
2023/05/24 01:14:25;;;;;;;11.35;2.95;;;;;;;10.47;61.69;102332.53;5014434;28;20057;-89
2023/05/24 01:17:02;;;;;;;8.45;3.00;;;;;;;10.31;61.80;102327.53;5026078;28;20025;-89
2023/05/24 01:19:30;;;;;;;14.05;3.10;;;;;;;10.29;62.55;102321.38;5027256;28;20752;-90
2023/05/24 01:22:16;;;;;;;11.32;3.13;;;;;;;10.09;62.85;102305.78;5007163;28;20060;-89
2023/05/24 01:25:02;;;;;;;6.60;2.92;;;;;;;9.84;63.13;102302.59;5023707;28;20042;-89
2023/05/24 01:27:30;;;;;;;7.38;2.90;;;;;;;9.70;64.87;102306.34;5026888;28;20484;-89
2023/05/24 01:29:56;;;;;;;8.45;2.55;;;;;;;9.56;65.23;102305.63;5024613;28;20022;-89
2023/05/24 01:32:22;;;;;;;9.93;2.55;;;;;;;9.69;64.45;102306.34;5013942;28;20024;-89
2023/05/24 01:34:47;;;;;;;10.57;3.38;;;;;;;9.81;64.20;102319.38;5033644;28;20506;-89
2023/05/24 01:37:13;;;;;;;8.27;2.60;;;;;;;9.83;63.61;102317.59;5013142;28;20483;-89
2023/05/24 01:39:39;;;;;;;10.20;3.05;;;;;;;9.96;63.41;102321.81;5029952;28;20053;-89
2023/05/24 01:42:23;;;;;;;10.77;3.33;;;;;;;10.01;63.79;102329.69;5030079;28;20048;-89
2023/05/24 01:45:01;;;;;;;12.20;3.15;;;;;;;10.00;63.52;102314.72;5029153;28;20029;-89
2023/05/24 01:47:26;;;;;;;7.00;2.88;;;;;;;10.01;63.27;102313.81;5034750;28;20079;-90
2023/05/24 01:49:56;;;;;;;8.77;2.97;;;;;;;9.86;63.80;102306.13;5034849;28;20147;-89
2023/05/24 01:52:26;;;;;;;5.97;2.63;;;;;;;9.83;63.53;102309.66;5015921;28;20036;-89
2023/05/24 01:54:55;;;;;;;8.13;2.78;;;;;;;9.60;64.56;102295.88;5017292;28;20064;-89
2023/05/24 01:57:22;;;;;;;7.20;2.92;;;;;;;9.26;65.27;102285.75;5027587;28;20112;-88
2023/05/24 01:59:48;;;;;;;17.27;3.15;;;;;;;9.52;64.23;102303.94;5027558;28;20041;-89
2023/05/24 02:02:14;;;;;;;5.90;2.60;;;;;;;9.47;64.33;102308.38;5010933;28;20029;-89
2023/05/24 02:04:39;;;;;;;7.28;2.90;;;;;;;9.13;65.61;102299.97;5029361;28;20095;-89
2023/05/24 02:07:05;;;;;;;10.93;2.72;;;;;;;9.19;65.12;102295.50;5025740;28;20036;-89
2023/05/24 02:09:30;;;;;;;9.63;3.75;;;;;;;9.28;65.25;102317.38;5028094;28;20010;-89
2023/05/24 02:11:55;;;;;;;15.80;3.60;;;;;;;9.30;64.66;102305.94;5024264;28;20380;-89
2023/05/24 02:14:21;;;;;;;12.05;3.10;;;;;;;9.43;64.28;102311.94;5026561;28;20124;-89
2023/05/24 02:16:46;;;;;;;8.63;2.88;;;;;;;9.50;64.07;102313.59;5010832;28;20067;-90
2023/05/24 02:19:12;;;;;;;8.50;2.72;;;;;;;9.61;63.72;102319.66;5028251;28;20064;-89
2023/05/24 02:21:38;;;;;;;14.15;3.33;;;;;;;9.54;64.00;102315.31;5027746;28;20060;-89
2023/05/24 02:24:05;;;;;;;10.10;3.53;;;;;;;9.59;63.52;102316.13;5027879;28;20038;-90
2023/05/24 02:26:30;;;;;;;10.35;3.05;;;;;;;9.63;63.50;102319.63;5010188;28;20017;-89
2023/05/24 02:28:56;;;;;;;8.88;2.85;;;;;;;9.64;63.78;102327.50;5027459;28;20041;-89
2023/05/24 02:31:21;;;;;;;12.77;3.20;;;;;;;9.52;63.76;102313.63;5031729;28;20476;-89
2023/05/24 02:33:47;;;;;;;9.13;3.10;;;;;;;9.50;63.71;102312.75;5018587;28;20395;-89
2023/05/24 02:36:13;;;;;;;8.35;2.88;;;;;;;9.52;63.47;102314.47;5031352;28;20480;-89
2023/05/24 02:38:39;;;;;;;11.38;3.22;;;;;;;9.55;63.57;102311.78;5033672;28;20107;-89
2023/05/24 02:41:04;;;;;;;6.32;2.45;;;;;;;9.60;63.58;102317.88;5029073;28;20485;-89
2023/05/24 02:43:29;;;;;;;5.07;2.40;;;;;;;9.39;64.20;102328.72;5009138;28;20022;-89
2023/05/24 02:45:55;;;;;;;12.30;3.28;;;;;;;9.32;64.14;102319.97;5024444;28;20033;-89
2023/05/24 02:48:20;;;;;;;10.85;3.22;;;;;;;9.34;63.98;102326.13;5028871;28;20141;-89
2023/05/24 02:50:45;;;;;;;6.15;3.13;;;;;;;9.31;64.30;102320.00;5010893;28;20050;-89
2023/05/24 02:53:11;;;;;;;8.25;3.08;;;;;;;9.39;64.18;102326.06;5010806;28;20461;-89
2023/05/24 02:55:36;;;;;;;12.63;3.80;;;;;;;9.43;64.14;102328.66;5012994;28;20104;-89
2023/05/24 02:58:01;;;;;;;7.00;3.15;;;;;;;9.36;63.94;102321.69;5025249;28;20231;-89
2023/05/24 03:00:27;;;;;;;10.30;3.17;;;;;;;9.25;64.62;102322.72;5008079;28;20030;-89
2023/05/24 03:02:52;;;;;;;8.68;2.80;;;;;;;9.23;64.49;102327.13;5010039;28;20040;-89
2023/05/24 03:05:17;;;;;;;8.10;2.78;;;;;;;9.29;64.31;102329.72;5007812;28;20419;-89
2023/05/24 03:07:42;;;;;;;6.45;2.92;;;;;;;9.17;64.41;102322.78;5006401;28;20385;-89
2023/05/24 03:10:08;;;;;;;14.65;3.13;;;;;;;9.07;64.97;102308.81;5014099;28;20465;-89
2023/05/24 03:12:34;;;;;;;8.00;3.10;;;;;;;8.98;65.27;102316.81;5006679;28;20026;-90
2023/05/24 03:14:59;;;;;;;12.57;3.30;;;;;;;8.90;65.36;102326.56;5010881;28;20025;-89
2023/05/24 03:17:24;;;;;;;6.95;2.97;;;;;;;8.58;67.08;102318.94;5012475;28;20497;-90
2023/05/24 03:19:51;;;;;;;7.80;3.00;;;;;;;8.60;67.00;102325.09;5010622;28;20038;-89
2023/05/24 03:22:16;;;;;;;7.45;2.92;;;;;;;8.50;67.05;102315.50;5008385;28;20437;-90
2023/05/24 03:24:41;;;;;;;7.57;3.35;;;;;;;8.58;66.22;102301.38;5026069;28;20071;-90
2023/05/24 03:27:07;;;;;;;10.73;3.30;;;;;;;8.76;66.37;102305.59;5026539;28;20033;-89
2023/05/24 03:29:33;;;;;;;9.32;3.38;;;;;;;8.62;66.38;102302.22;5011668;28;20503;-90
2023/05/24 03:31:58;;;;;;;7.60;3.22;;;;;;;8.60;66.62;102302.22;5014629;28;20034;-90
2023/05/24 03:34:23;;;;;;;10.68;3.60;;;;;;;8.66;66.79;102301.28;5014783;28;20101;-90
2023/05/24 03:36:49;;;;;;;8.75;3.63;;;;;;;8.52;67.35;102306.69;5022492;28;20485;-89
2023/05/24 03:39:14;;;;;;;6.45;2.92;;;;;;;8.43;67.37;102318.16;5013852;28;20053;-90
2023/05/24 03:41:39;;;;;;;13.63;3.75;;;;;;;8.38;67.58;102292.75;5011213;28;20021;-89
2023/05/24 03:44:05;;;;;;;9.10;4.00;;;;;;;8.18;68.24;102287.59;5019001;28;20518;-90
2023/05/24 03:46:30;;;;;;;11.55;4.18;;;;;;;8.28;68.27;102307.72;5015154;28;20030;-90
2023/05/24 03:48:55;;;;;;;9.05;3.60;;;;;;;8.49;67.40;102312.00;5017257;28;20104;-89
2023/05/24 03:51:28;;;;;;;12.23;4.40;;;;;;;8.52;67.07;102311.97;5031382;28;20048;-89
2023/05/24 03:53:56;;;;;;;10.57;3.58;;;;;;;8.43;66.58;102294.44;5008169;28;20111;-90
2023/05/24 03:56:22;;;;;;;10.18;3.50;;;;;;;8.55;67.00;102303.16;5018674;28;20101;-90
2023/05/24 03:58:47;;;;;;;8.60;3.70;;;;;;;8.57;67.30;102304.88;5034964;28;20021;-89
2023/05/24 04:01:12;;;;;;;8.00;3.40;;;;;;;8.55;67.26;102309.31;5028002;28;20037;-89
2023/05/24 04:03:39;;;;;;;9.70;4.10;;;;;;;8.54;67.33;102302.28;5012782;28;20026;-89
2023/05/24 04:06:04;;;;;;;7.15;3.45;;;;;;;8.61;67.58;102317.16;5030028;28;20053;-89
2023/05/24 04:08:30;;;;;;;8.90;3.60;;;;;;;8.47;68.44;102304.97;5027683;28;20061;-89
2023/05/24 04:10:56;;;;;;;13.63;5.18;;;;;;;8.35;68.85;102306.81;5033081;28;20094;-89
2023/05/24 04:13:21;;;;;;;10.70;3.78;;;;;;;8.40;67.95;102317.34;5013993;28;20543;-89
2023/05/24 04:15:46;;;;;;;9.60;3.75;;;;;;;8.46;68.13;102324.31;5029692;28;20534;-89
2023/05/24 04:18:12;;;;;;;9.32;3.60;;;;;;;8.54;67.90;102315.47;5017071;28;20033;-90
2023/05/24 04:20:37;;;;;;;11.85;4.20;;;;;;;8.53;68.14;102318.09;5016714;28;20017;-89
2023/05/24 04:23:02;;;;;;;14.20;4.05;;;;;;;8.62;67.90;102326.81;5012843;28;20029;-89
2023/05/24 04:25:28;;;;;;;9.52;3.70;;;;;;;8.57;68.92;102312.78;5028147;28;20026;-89
2023/05/24 04:27:54;;;;;;;10.60;4.43;;;;;;;8.52;68.38;102308.44;5029944;28;20021;-90
2023/05/24 04:30:20;;;;;;;11.90;4.38;;;;;;;8.64;68.02;102322.41;5029890;28;20472;-89
2023/05/24 04:32:47;;;;;;;9.52;4.25;;;;;;;8.61;68.83;102321.56;5036117;28;20028;-89
2023/05/24 04:35:13;;;;;;;7.90;3.85;;;;;;;8.75;68.28;102324.94;5029244;28;20025;-89
2023/05/24 04:37:39;;;;;;;7.68;4.18;;;;;;;8.64;69.59;102319.78;5029861;28;20484;-89
2023/05/24 04:40:06;;;;;;;11.15;4.07;;;;;;;8.81;68.75;102322.28;5017284;28;20037;-89
2023/05/24 04:42:32;;;;;;;16.98;4.80;;;;;;;8.82;68.58;102308.19;5021111;28;20187;-89
2023/05/24 04:44:58;;;;;;;8.23;4.22;;;;;;;8.92;69.01;102322.16;5030116;28;20053;-89
2023/05/24 04:47:23;;;;;;;10.93;4.53;;;;;;;8.87;69.03;102301.13;5034204;28;20036;-89
2023/05/24 04:49:49;;;;;;;14.40;4.95;;;;;;;9.16;68.50;102328.97;5029202;28;20088;-89
2023/05/24 04:52:15;;;;;;;13.20;4.88;;;;;;;9.18;68.07;102309.56;5032967;28;20071;-89
2023/05/24 04:54:40;;;;;;;14.65;5.95;;;;;;;9.29;68.21;102317.38;5028307;28;20388;-89
2023/05/24 04:57:06;;;;;;;14.13;5.70;;;;;;;9.41;68.40;102319.88;5016789;28;20029;-89
2023/05/24 04:59:31;;;;;;;15.82;5.22;;;;;;;9.35;69.43;102325.22;5028087;28;20036;-90
2023/05/24 05:01:56;;;;;;;15.90;5.75;;;;;;;9.31;69.27;102330.56;5031537;28;20040;-89
2023/05/24 05:04:22;;;;;;;12.93;5.80;;;;;;;9.39;69.24;102312.88;5016668;28;20031;-89
2023/05/24 05:06:47;;;;;;;19.67;6.05;;;;;;;9.48;69.62;102315.41;5028912;28;20507;-89
2023/05/24 05:09:14;;;;;;;14.52;5.88;;;;;;;9.50;69.69;102321.53;5029405;28;20662;-89
2023/05/24 05:11:40;;;;;;;15.93;5.45;;;;;;;9.63;69.66;102327.53;5016158;28;20042;-89
2023/05/24 05:14:08;;;;;;;13.68;6.10;;;;;;;9.74;69.75;102324.75;5016504;28;20040;-87
2023/05/24 05:16:34;;;;;;;12.57;5.88;;;;;;;9.68;70.44;102318.66;5011509;28;20033;-87
2023/05/24 05:19:00;;;;;;;18.67;6.88;;;;;;;9.73;70.37;102326.53;5028767;28;20041;-88
2023/05/24 05:21:25;;;;;;;18.17;6.20;;;;;;;9.91;69.90;102335.97;5028467;28;20025;-87
2023/05/24 05:23:51;;;;;;;16.25;6.55;;;;;;;10.06;69.70;102329.59;5019581;28;20502;-88
2023/05/24 05:26:16;;;;;;;16.58;5.85;;;;;;;10.19;69.40;102331.19;5029374;28;20032;-87
2023/05/24 05:28:41;;;;;;;17.80;6.82;;;;;;;10.32;69.13;102329.28;5008893;28;20036;-89
2023/05/24 05:31:07;;;;;;;21.23;6.80;;;;;;;10.47;68.73;102327.25;5012262;28;20036;-89
2023/05/24 05:33:32;;;;;;;14.50;6.22;;;;;;;10.54;68.93;102324.50;5012243;28;20399;-90
2023/05/24 05:35:57;;;;;;;16.77;5.70;;;;;;;10.67;68.01;102332.22;5012021;28;20072;-91
2023/05/24 05:38:23;;;;;;;13.43;6.47;;;;;;;10.65;68.52;102309.34;5029914;28;20548;-90
2023/05/24 05:40:48;;;;;;;14.30;5.80;;;;;;;10.79;68.67;102331.16;5012225;28;20031;-90
2023/05/24 05:43:13;;;;;;;15.43;6.18;;;;;;;10.89;68.27;102318.63;5026600;28;20039;-90
2023/05/24 05:45:39;;;;;;;16.17;5.70;;;;;;;10.98;67.68;102319.34;5030914;28;20147;-89
2023/05/24 05:48:04;;;;;;;15.57;5.75;;;;;;;11.12;67.19;102320.84;5029576;28;20029;-90
2023/05/24 05:50:30;;;;;;;19.77;5.65;;;;;;;11.26;67.70;102325.91;5026303;28;20064;-91
2023/05/24 05:52:56;;;;;;;18.30;6.00;;;;;;;11.38;68.02;102334.47;5027212;28;20038;-90
2023/05/24 05:55:22;;;;;;;18.33;6.60;;;;;;;11.42;67.73;102322.03;5021626;28;20100;-91
2023/05/24 05:57:47;;;;;;;21.05;7.47;;;;;;;11.52;67.32;102334.22;5008573;28;20125;-90
2023/05/24 06:00:13;;;;;;;15.82;6.47;;;;;;;11.60;67.33;102334.03;5024991;28;20030;-90
2023/05/24 06:02:38;;;;;;;23.20;7.53;;;;;;;11.68;67.62;102329.47;5025781;28;20476;-91
2023/05/24 06:05:04;;;;;;;16.70;5.90;;;;;;;11.84;66.52;102338.84;5028039;28;20036;-91
2023/05/24 06:07:29;;;;;;;21.90;7.03;;;;;;;11.86;67.51;102329.09;5024850;28;20021;-90
2023/05/24 06:09:55;;;;;;;18.55;6.95;;;;;;;12.03;66.96;102347.28;5011417;28;20104;-90
2023/05/24 06:12:20;;;;;;;23.88;6.80;;;;;;;11.94;67.23;102334.25;5006527;28;20499;-91
2023/05/24 06:14:47;;;;;;;17.85;6.30;;;;;;;11.99;67.46;102348.28;5013638;28;20033;-91
2023/05/24 06:17:12;;;;;;;19.52;5.88;;;;;;;12.12;66.68;102347.06;5004971;28;20492;-91
2023/05/24 06:19:37;;;;;;;14.10;5.38;;;;;;;12.19;67.70;102348.69;5025034;28;20075;-90
2023/05/24 06:22:03;;;;;;;19.05;5.82;;;;;;;12.29;66.32;102351.13;5026580;28;20440;-90
2023/05/24 06:24:28;;;;;;;17.10;5.50;;;;;;;12.42;66.83;102350.81;5024840;28;20029;-91
2023/05/24 06:26:53;;;;;;;16.50;5.75;;;;;;;12.66;65.69;102367.91;5008037;28;20021;-90
2023/05/24 06:29:20;;;;;;;23.42;6.85;;;;;;;12.82;65.35;102357.78;5031496;28;20113;-90
2023/05/24 06:31:46;;;;;;;19.90;6.43;;;;;;;12.94;64.50;102356.59;5011820;28;20057;-90
2023/05/24 06:34:15;;;;;;;18.00;6.07;;;;;;;13.06;64.26;102358.94;5019501;28;20079;-90
2023/05/24 06:36:41;;;;;;;21.23;6.05;;;;;;;13.20;64.09;102354.16;5027058;28;20487;-90
2023/05/24 06:39:08;;;;;;;15.85;6.85;;;;;;;13.31;64.80;102350.34;5029305;28;20033;-90
2023/05/24 06:41:34;;;;;;;21.70;6.65;;;;;;;13.52;63.68;102349.75;5014038;28;20021;-91
2023/05/24 06:43:59;;;;;;;17.92;5.95;;;;;;;13.57;62.80;102352.25;5033964;28;20033;-90
2023/05/24 06:46:25;;;;;;;18.10;6.45;;;;;;;13.86;62.94;102340.81;5013351;28;20025;-90
2023/05/24 06:48:50;;;;;;;19.02;6.15;;;;;;;14.36;62.37;102355.22;5031794;28;20021;-90
2023/05/24 06:51:16;;;;;;;17.60;6.30;;;;;;;14.48;61.73;102346.00;5031120;28;20025;-90
2023/05/24 06:53:41;;;;;;;20.23;6.43;;;;;;;14.53;60.57;102346.69;5031436;28;20028;-89
2023/05/24 06:56:08;;;;;;;13.20;5.75;;;;;;;14.68;59.58;102361.28;5013961;28;20108;-90
2023/05/24 06:58:33;;;;;;;19.83;6.28;;;;;;;14.58;58.23;102351.88;5020883;28;20036;-90
2023/05/24 07:00:59;;;;;;;14.73;6.28;;;;;;;14.72;60.08;102362.94;5037417;28;20033;-89
2023/05/24 07:03:25;;;;;;;13.63;6.00;;;;;;;14.95;60.40;102348.84;5002268;28;20108;-91
2023/05/24 07:05:50;;;;;;;16.83;6.75;;;;;;;15.18;57.33;102343.59;5039165;28;20074;-90
2023/05/24 07:08:15;;;;;;;15.63;6.25;;;;;;;15.24;56.88;102347.81;5036423;28;20029;-90
2023/05/24 07:10:41;;;;;;;16.77;6.05;;;;;;;15.26;57.32;102346.88;5027630;28;20056;-89
2023/05/24 07:13:06;;;;;;;20.77;6.13;;;;;;;15.42;56.82;102351.63;5032504;28;20028;-90
2023/05/24 07:15:31;;;;;;;15.23;5.82;;;;;;;15.56;55.67;102355.53;5006284;28;20086;-90
2023/05/24 07:17:57;;;;;;;16.67;5.28;;;;;;;15.91;55.82;102352.53;5029032;28;20031;-89
2023/05/24 07:20:22;;;;;;;9.63;4.30;;;;;;;15.95;53.27;102352.34;5027451;28;20041;-89
2023/05/24 07:22:48;;;;;;;17.15;5.30;;;;;;;15.89;56.39;102355.22;5030970;28;20117;-90
2023/05/24 07:25:13;;;;;;;17.88;5.40;;;;;;;16.04;53.93;102359.09;5013015;28;20409;-90
2023/05/24 07:27:38;;;;;;;15.48;4.47;;;;;;;16.46;55.17;102366.34;5014477;28;20037;-90
2023/05/24 07:30:04;;;;;;;17.38;5.07;;;;;;;16.93;53.56;102364.44;5030676;28;20053;-91
2023/05/24 07:32:31;;;;;;;22.38;5.60;;;;;;;17.36;50.04;102354.53;5028584;28;20064;-90
2023/05/24 07:34:57;;;;;;;18.00;5.28;;;;;;;18.18;49.54;102373.09;5032564;28;20087;-90
2023/05/24 07:37:23;;;;;;;13.57;4.53;;;;;;;18.69;47.40;102372.38;5029035;28;20037;-90
2023/05/24 07:39:50;;;;;;;14.07;4.85;;;;;;;18.81;44.79;102358.38;5011531;28;20382;-91
2023/05/24 07:42:15;;;;;;;16.48;4.82;;;;;;;18.99;46.09;102369.13;5029126;28;20034;-90
2023/05/24 07:44:41;;;;;;;17.42;4.85;;;;;;;19.61;47.44;102363.16;5014485;28;21709;-90
2023/05/24 07:47:06;;;;;;;16.08;4.50;;;;;;;19.15;44.93;102364.69;5017128;28;20064;-90
2023/05/24 07:49:31;;;;;;;17.77;4.63;;;;;;;19.07;45.70;102369.56;5041710;28;20087;-91
2023/05/24 07:51:58;;;;;;;14.07;3.97;;;;;;;19.44;44.04;102370.34;5012442;28;20495;-90
2023/05/24 07:54:24;;;;;;;15.50;4.68;;;;;;;20.01;41.40;102370.88;5006490;28;20161;-90
2023/05/24 07:56:49;;;;;;;22.77;4.60;;;;;;;19.32;43.31;102353.09;5028553;28;20100;-90
2023/05/24 07:59:15;;;;;;;15.05;4.90;;;;;;;19.00;44.96;102370.84;5040426;28;20028;-91
2023/05/24 08:01:40;;;;;;;20.58;4.60;;;;;;;19.59;43.81;102366.84;5014543;28;20021;-90
2023/05/24 08:04:08;;;;;;;12.90;4.70;;;;;;;20.70;42.04;102361.56;5012061;28;20033;-89
2023/05/24 08:06:33;;;;;;;19.10;4.88;;;;;;;20.44;40.74;102358.56;5012255;28;20025;-91
2023/05/24 08:08:59;;;;;;;16.23;4.88;;;;;;;19.62;41.91;102364.88;5028993;28;20492;-91
2023/05/24 08:11:25;;;;;;;18.85;4.32;;;;;;;19.87;42.57;102364.44;5043554;28;20029;-89
2023/05/24 08:13:50;;;;;;;13.63;4.40;;;;;;;20.38;41.77;102362.47;5008964;28;20537;-90
2023/05/24 08:16:17;;;;;;;13.68;4.43;;;;;;;19.90;42.45;102366.06;5023152;28;20085;-91
2023/05/24 08:18:43;;;;;;;17.33;4.82;;;;;;;19.32;43.26;102353.97;5030678;28;20108;-91
2023/05/24 08:21:08;;;;;;;9.05;4.22;;;;;;;18.76;43.98;102351.53;5033527;28;20100;-91
2023/05/24 08:23:33;;;;;;;15.82;4.25;;;;;;;18.50;45.58;102361.69;5012002;28;20507;-91
2023/05/24 08:25:59;;;;;;;15.73;5.32;;;;;;;18.44;44.99;102366.47;5034654;28;20037;-92
2023/05/24 08:28:25;;;;;;;13.05;4.63;;;;;;;18.10;44.43;102344.88;5021932;28;20021;-91
2023/05/24 08:30:51;;;;;;;14.05;4.60;;;;;;;18.20;46.81;102356.03;5024792;28;20052;-91
2023/05/24 08:33:16;;;;;;;16.73;5.05;;;;;;;18.59;44.48;102358.56;5020288;28;20063;-90
2023/05/24 08:35:41;;;;;;;12.77;3.78;;;;;;;18.22;44.54;102356.81;5034434;28;20023;-91
2023/05/24 08:38:08;;;;;;;18.45;3.78;;;;;;;18.28;44.86;102369.06;5034224;28;20029;-91
2023/05/24 08:40:33;;;;;;;41.38;5.60;;;;;;;18.05;45.44;102354.94;5029093;28;20024;-90
2023/05/24 08:43:00;;;;;;;34.65;5.88;;;;;;;19.55;44.32;102357.22;5014314;28;20108;-90
2023/05/24 08:45:29;;;;;;;20.80;4.50;;;;;;;20.81;41.50;102349.25;5029631;28;20477;-90
2023/05/24 08:47:55;;;;;;;19.13;4.18;;;;;;;22.11;37.53;102356.47;5032923;28;20388;-89
2023/05/24 08:50:22;;;;;;;23.75;4.60;;;;;;;22.99;36.42;102348.84;5031057;28;20053;-90
2023/05/24 08:52:48;;;;;;;13.40;3.30;;;;;;;22.51;37.52;102340.41;5033463;28;20029;-90
2023/05/24 08:55:14;;;;;;;10.57;2.95;;;;;;;23.07;36.00;102341.09;5028954;28;20095;-88
2023/05/24 08:57:40;;;;;;;11.65;3.58;;;;;;;24.10;35.52;102338.22;5029223;28;20092;-89
2023/05/24 09:00:10;;;;;;;18.63;3.30;;;;;;;24.87;35.17;102349.59;5026177;28;20021;-89
2023/05/24 09:02:38;;;;;;;35.00;4.55;;;;;;;24.32;32.20;102342.91;5021010;28;20041;-90
2023/05/24 09:05:06;;;;;;;10.32;3.53;;;;;;;23.63;34.31;102337.09;5008578;28;20029;-90
2023/05/24 09:07:32;;;;;;;8.32;3.30;;;;;;;23.56;35.44;102334.97;5030235;28;20467;-89
2023/05/24 09:10:04;;;;;;;9.63;3.50;;;;;;;23.91;36.64;102336.00;5009458;28;20025;-89
2023/05/24 09:12:31;;;;;;;16.58;3.50;;;;;;;24.06;34.15;102334.03;5029806;28;20017;-89
2023/05/24 09:14:58;;;;;;;9.65;3.22;;;;;;;23.65;35.39;102331.66;5010527;28;20381;-89
2023/05/24 09:17:23;;;;;;;22.02;4.32;;;;;;;23.35;34.42;102340.91;5032726;28;20112;-89
2023/05/24 09:19:50;;;;;;;14.73;3.95;;;;;;;22.47;36.79;102334.34;5029933;28;20510;-89
2023/05/24 09:22:22;;;;;;;13.43;3.72;;;;;;;21.79;37.11;102340.53;5029193;28;20051;-90
2023/05/24 09:24:48;;;;;;;16.35;4.38;;;;;;;22.44;37.79;102336.41;5029433;28;20040;-89
2023/05/24 09:27:16;;;;;;;9.85;3.63;;;;;;;22.98;37.00;102339.03;5024509;28;20059;-89
2023/05/24 09:29:42;;;;;;;13.18;3.28;;;;;;;23.45;36.16;102326.75;5022846;28;20068;-89
2023/05/24 09:32:08;;;;;;;11.38;3.28;;;;;;;23.57;34.59;102331.28;5026912;28;20037;-89
2023/05/24 09:34:40;;;;;;;11.35;3.03;;;;;;;23.97;35.83;102348.22;5010943;28;20079;-89
2023/05/24 09:37:12;;;;;;;7.22;2.92;;;;;;;24.08;35.48;102339.31;5026113;28;20152;-89
2023/05/24 09:39:39;;;;;;;;;;;;;;;24.60;36.22;102338.16;5024975;28;20725;-90
2023/05/24 09:52:41;;;;;;;9.90;3.33;;;;;;;22.93;34.05;102317.78;6242076;22;1210081;-90
2023/05/24 09:55:14;;;;;;;11.52;3.75;;;;;;;22.50;34.21;102325.19;6258407;22;20340;-90
2023/05/24 09:57:40;;;;;;;11.20;3.60;;;;;;;22.52;35.02;102325.94;6253198;22;19999;-90
2023/05/24 10:00:15;;;;;;;12.95;3.90;;;;;;;22.51;36.82;102316.13;6252570;22;20052;-90
2023/05/24 10:02:41;;;;;;;7.25;3.28;;;;;;;22.92;34.13;102316.91;6254315;22;20009;-90
2023/05/24 10:05:10;;;;;;;6.93;3.40;;;;;;;23.44;34.59;102317.78;6254296;22;20010;-89
2023/05/24 10:07:36;;;;;;;11.05;3.10;;;;;;;23.64;33.04;102308.28;6253844;22;20011;-90
2023/05/24 10:10:03;;;;;;;7.30;3.40;;;;;;;24.04;33.13;102310.81;6253552;22;20340;-91
2023/05/24 10:12:29;;;;;;;7.05;2.90;;;;;;;24.15;31.84;102305.44;6280599;22;20317;-90
2023/05/24 10:14:56;;;;;;;10.85;3.70;;;;;;;23.74;32.10;102312.09;6252728;22;20008;-90
2023/05/24 10:17:23;;;;;;;7.45;2.95;;;;;;;22.92;34.24;102311.53;6252763;22;20086;-90
2023/05/24 10:19:50;;;;;;;9.73;3.65;;;;;;;22.83;35.15;102322.91;6253058;22;20008;-89
2023/05/24 10:22:15;;;;;;;8.65;3.92;;;;;;;22.67;34.87;102311.47;6281891;22;20331;-89
2023/05/24 10:24:46;;;;;;;10.60;3.65;;;;;;;22.48;35.15;102310.97;6254583;22;20026;-89
2023/05/24 10:27:17;;;;;;;11.63;3.55;;;;;;;22.14;36.00;102314.06;6280042;22;20070;-88
2023/05/24 10:29:54;;;;;;;8.52;3.22;;;;;;;22.05;35.83;102309.22;6281622;22;20003;-90
2023/05/24 10:32:21;;;;;;;10.05;3.10;;;;;;;22.48;36.27;102305.59;6283908;22;20449;-90
2023/05/24 10:34:49;;;;;;;9.18;3.60;;;;;;;22.79;33.99;102304.34;6257842;22;20082;-91
2023/05/24 10:37:16;;;;;;;10.68;2.90;;;;;;;22.85;34.74;102302.13;6256212;22;20011;-91
2023/05/24 10:39:42;;;;;;;6.88;2.70;;;;;;;22.71;33.69;102307.59;6252558;22;20451;-90
2023/05/24 10:42:07;;;;;;;8.30;3.03;;;;;;;22.56;34.25;102301.38;6253270;22;20057;-92
2023/05/24 10:44:34;;;;;;;8.05;3.00;;;;;;;22.31;34.35;102299.47;6283295;22;20010;-92
2023/05/24 10:47:11;;;;;;;13.00;3.35;;;;;;;22.27;36.36;102303.34;6283420;22;20424;-92
2023/05/24 10:49:47;;;;;;;10.55;3.67;;;;;;;22.72;33.23;102303.06;6251836;22;20431;-91
2023/05/24 10:52:13;;;;;;;10.38;3.60;;;;;;;23.34;34.00;102311.34;6239084;23;20012;-90
2023/05/24 10:54:38;;;;;;;8.75;3.03;;;;;;;23.49;33.42;102303.97;6246620;23;20004;-91
2023/05/24 10:57:06;;;;;;;10.50;3.40;;;;;;;23.32;33.93;102305.19;6245751;22;20000;-91
2023/05/24 10:59:36;;;;;;;9.70;3.40;;;;;;;22.88;33.15;102309.09;6241708;22;20487;-92
2023/05/24 11:02:08;;;;;;;10.43;3.25;;;;;;;22.37;33.05;102306.28;6216681;23;20004;-91
2023/05/24 11:04:42;;;;;;;11.75;3.40;;;;;;;22.03;34.03;102305.78;6243758;23;20030;-92
2023/05/24 11:07:08;;;;;;;8.50;3.60;;;;;;;21.89;34.80;102300.44;6243856;23;20077;-91
2023/05/24 11:09:36;;;;;;;12.48;3.47;;;;;;;21.93;34.57;102301.09;6245951;23;20370;-92
2023/05/24 11:12:07;;;;;;;8.75;2.95;;;;;;;21.63;34.23;102288.63;6247875;22;20007;-91
2023/05/24 11:14:36;;;;;;;12.98;3.58;;;;;;;21.51;35.28;102295.69;6245711;23;20008;-92
2023/05/24 11:17:03;;;;;;;5.15;3.00;;;;;;;21.50;35.41;102303.84;6244192;23;20011;-92
2023/05/24 11:19:34;;;;;;;8.48;3.20;;;;;;;21.43;35.46;102306.03;6244168;23;20030;-91
2023/05/24 11:22:01;;;;;;;11.25;2.88;;;;;;;21.51;34.99;102310.97;6245814;23;20000;-93
2023/05/24 11:24:27;;;;;;;10.30;3.08;;;;;;;21.47;34.70;102306.72;6248029;22;20031;-93
2023/05/24 11:26:53;;;;;;;8.35;3.00;;;;;;;21.46;35.90;102280.78;6247780;23;20015;-93
2023/05/24 11:29:23;;;;;;;7.90;3.33;;;;;;;21.53;35.30;102298.25;6250279;22;20011;-92
2023/05/24 11:31:53;;;;;;;8.52;3.45;;;;;;;21.57;35.79;102310.56;6247318;23;20447;-92
2023/05/24 11:34:20;;;;;;;12.70;4.00;;;;;;;21.54;35.84;102313.44;6246646;23;20008;-92